Time;durP1;ratioP1;P1;durP2;ratioP2;P2;SDS_P1;SDS_P2;PMS_P1;PMS_P2;Temp;Humidity;BMP_temperature;BMP_pressure;BME280_temperature;BME280_humidity;BME280_pressure;Samples;Min_cycle;Max_cycle;Signal;HPM_P1;HPM_P2
2023/03/01 00:01:48;;;;;;;16.40;9.50;;;;;;;0.61;88.65;96449.50;106944;1275;23139;-75
2023/03/01 00:04:16;;;;;;;16.20;9.00;;;;;;;0.56;88.41;96442.25;106675;1275;25324;-75
2023/03/01 00:06:48;;;;;;;17.70;10.10;;;;;;;0.53;88.68;96439.36;106363;1275;23934;-75
2023/03/01 00:09:17;;;;;;;16.90;9.20;;;;;;;0.51;89.51;96434.46;106562;1276;24193;-75
2023/03/01 00:11:45;;;;;;;19.40;9.40;;;;;;;0.49;90.12;96438.88;106838;1275;22525;-75
2023/03/01 00:14:16;;;;;;;24.00;14.10;;;;;;;0.48;89.76;96438.14;106627;1275;22517;-75
2023/03/01 00:16:45;;;;;;;32.90;17.30;;;;;;;0.47;89.51;96438.48;106650;1276;23878;-75
2023/03/01 00:19:16;;;;;;;32.20;18.50;;;;;;;0.47;89.57;96438.98;106892;1276;25723;-75
2023/03/01 00:21:44;;;;;;;36.00;18.80;;;;;;;0.48;89.74;96441.09;106580;1275;24237;-74
2023/03/01 00:24:13;;;;;;;20.10;11.50;;;;;;;0.46;90.15;96439.48;106588;1276;23153;-75
2023/03/01 00:26:41;;;;;;;16.10;8.90;;;;;;;0.45;89.90;96440.81;106583;1275;25249;-75
2023/03/01 00:29:09;;;;;;;15.00;8.70;;;;;;;0.47;89.85;96444.01;106542;1276;25507;-75
2023/03/01 00:31:37;;;;;;;16.40;9.00;;;;;;;0.49;89.81;96438.89;106700;1276;25209;-75
2023/03/01 00:34:06;;;;;;;22.80;12.60;;;;;;;0.52;89.86;96440.70;106771;1275;26494;-75
2023/03/01 00:36:36;;;;;;;22.40;13.10;;;;;;;0.53;89.80;96443.69;106774;1276;24346;-75
2023/03/01 00:39:09;;;;;;;18.40;11.30;;;;;;;0.52;89.40;96444.36;106596;1276;25400;-73
2023/03/01 00:41:38;;;;;;;21.70;11.10;;;;;;;0.55;89.24;96442.37;106592;1276;24117;-75
2023/03/01 00:44:06;;;;;;;14.60;8.90;;;;;;;0.59;89.36;96439.92;106677;1275;24200;-74
2023/03/01 00:46:35;;;;;;;15.40;8.70;;;;;;;0.63;89.23;96436.07;106537;1275;25300;-75
2023/03/01 00:49:05;;;;;;;10.10;6.80;;;;;;;0.65;89.13;96433.54;106540;1275;22519;-75
2023/03/01 00:51:33;;;;;;;10.70;7.00;;;;;;;0.66;89.37;96429.44;106581;1275;22528;-75
2023/03/01 00:54:02;;;;;;;14.10;8.70;;;;;;;0.69;90.08;96431.23;106741;1275;22517;-75
2023/03/01 00:56:31;;;;;;;16.50;9.80;;;;;;;0.71;89.98;96433.76;106705;1275;22644;-75
2023/03/01 00:59:01;;;;;;;17.50;10.30;;;;;;;0.82;90.31;96430.81;106613;1275;24248;-75
2023/03/01 01:01:31;;;;;;;21.30;12.80;;;;;;;0.89;90.15;96427.73;106635;1275;22522;-74
2023/03/01 01:04:03;;;;;;;23.80;14.30;;;;;;;0.89;89.80;96432.39;106589;1275;22736;-74
2023/03/01 01:06:35;;;;;;;25.80;14.20;;;;;;;0.95;90.20;96424.45;106387;1275;26596;-75
2023/03/01 01:09:06;;;;;;;25.50;15.10;;;;;;;1.06;90.55;96418.41;106582;1275;22469;-75
2023/03/01 01:11:36;;;;;;;26.80;17.00;;;;;;;1.15;90.44;96414.51;106600;1275;24208;-75
2023/03/01 01:14:04;;;;;;;15.70;9.80;;;;;;;1.20;89.84;96413.45;106638;1275;25242;-75
2023/03/01 01:16:33;;;;;;;23.00;13.20;;;;;;;1.13;89.00;96412.20;106712;1275;25320;-75
2023/03/01 01:19:02;;;;;;;22.50;13.00;;;;;;;1.15;89.46;96407.22;106618;1275;22523;-74
2023/03/01 01:21:31;;;;;;;20.00;12.00;;;;;;;1.17;89.25;96403.83;106529;1275;24256;-74
2023/03/01 01:23:59;;;;;;;16.50;10.40;;;;;;;1.20;89.27;96402.19;106584;1275;22646;-74
2023/03/01 01:26:31;;;;;;;18.20;11.50;;;;;;;1.28;89.80;96403.45;106710;1275;22519;-74
2023/03/01 01:29:04;;;;;;;18.40;11.70;;;;;;;1.39;90.03;96396.88;106827;1276;22656;-74
2023/03/01 01:31:33;;;;;;;17.30;10.60;;;;;;;1.46;89.42;96394.83;106666;1275;22727;-75
2023/03/01 01:34:03;;;;;;;12.10;7.90;;;;;;;1.37;88.44;96388.31;106581;1265;22555;-74
2023/03/01 01:36:33;;;;;;;12.60;7.50;;;;;;;1.26;87.92;96388.34;106655;1275;23414;-75
2023/03/01 01:39:01;;;;;;;12.60;8.00;;;;;;;1.25;88.65;96389.88;106894;1276;25409;-75
2023/03/01 01:41:30;;;;;;;16.60;10.10;;;;;;;1.28;88.70;96383.70;106886;1275;24384;-75
2023/03/01 01:44:11;;;;;;;13.80;8.20;;;;;;;1.21;88.25;96381.59;106604;1275;24248;-75
2023/03/01 01:46:44;;;;;;;10.60;7.00;;;;;;;1.15;88.43;96379.70;106746;1276;22518;-74
2023/03/01 01:49:26;;;;;;;13.80;8.50;;;;;;;1.18;88.62;96373.02;106924;1275;25347;-75
2023/03/01 01:52:05;;;;;;;12.30;6.40;;;;;;;1.17;88.62;96373.50;106512;1276;24226;-75
2023/03/01 01:54:57;;;;;;;8.80;5.80;;;;;;;1.15;88.36;96378.63;106633;1276;25469;-74
2023/03/01 01:57:29;;;;;;;8.40;5.10;;;;;;;1.07;88.26;96381.54;106604;1276;25337;-75
2023/03/01 02:00:02;;;;;;;10.60;6.50;;;;;;;1.01;88.41;96376.83;106661;1276;25476;-75
2023/03/01 02:02:43;;;;;;;8.50;5.50;;;;;;;0.97;88.82;96373.40;106610;1276;22630;-75
2023/03/01 02:05:29;;;;;;;7.40;4.40;;;;;;;0.93;88.39;96373.97;106589;1276;22507;-74
2023/03/01 02:07:58;;;;;;;7.70;4.60;;;;;;;0.88;88.36;96372.09;106475;1276;24231;-75
2023/03/01 02:10:28;;;;;;;10.80;4.80;;;;;;;0.85;88.76;96370.27;106646;1276;25141;-75
2023/03/01 02:12:56;;;;;;;8.50;5.00;;;;;;;0.87;89.04;96361.33;106658;1276;22521;-74
2023/03/01 02:15:26;;;;;;;8.60;5.30;;;;;;;0.88;89.19;96358.26;106632;1276;25382;-75
2023/03/01 02:17:56;;;;;;;9.10;5.30;;;;;;;0.88;89.35;96361.69;106618;1276;23011;-75
2023/03/01 02:20:36;;;;;;;7.30;4.50;;;;;;;0.85;89.45;96356.94;106541;1276;24909;-75
2023/03/01 02:23:05;;;;;;;6.00;3.80;;;;;;;0.81;89.33;96359.61;106633;1276;25403;-74
2023/03/01 02:25:56;;;;;;;7.20;4.60;;;;;;;0.82;89.36;96355.45;106630;1276;22526;-75
2023/03/01 02:28:39;;;;;;;6.00;3.20;;;;;;;0.82;89.32;96352.69;106694;1276;22527;-75
2023/03/01 02:33:57;;;;;;;8.10;3.90;;;;;;;0.73;89.74;96342.38;106555;1276;22517;-75
2023/03/01 02:36:31;;;;;;;12.50;6.10;;;;;;;0.70;89.88;96341.75;106562;1276;22522;-74
2023/03/01 02:39:03;;;;;;;11.20;7.30;;;;;;;0.67;90.08;96341.30;106615;1276;22519;-75
2023/03/01 02:41:35;;;;;;;15.10;7.40;;;;;;;0.66;90.20;96341.63;106542;1276;24045;-75
2023/03/01 02:44:05;;;;;;;11.10;7.10;;;;;;;0.65;90.09;96339.00;106623;1276;25471;-75
2023/03/01 02:46:34;;;;;;;12.10;6.40;;;;;;;0.65;90.15;96333.64;106629;1276;24385;-75
2023/03/01 02:49:17;;;;;;;7.10;4.50;;;;;;;0.64;89.94;96331.36;106694;1276;26501;-74
2023/03/01 02:52:00;;;;;;;7.30;4.00;;;;;;;0.67;90.00;96330.23;106587;1276;22783;-74
2023/03/01 02:54:29;;;;;;;;;;;;;;;0.68;89.99;96335.48;106640;1276;22502;-74
2023/03/01 02:56:57;;;;;;;8.20;3.60;;;;;;;0.64;89.76;96333.27;106561;1276;24198;-74
2023/03/01 02:59:31;;;;;;;6.30;4.10;;;;;;;0.64;89.81;96328.05;106593;1276;25824;-74
2023/03/01 03:02:00;;;;;;;9.10;5.00;;;;;;;0.67;89.91;96321.22;106589;1276;22535;-74
2023/03/01 03:04:28;;;;;;;6.30;3.80;;;;;;;0.71;89.99;96321.86;106610;1276;22630;-74
2023/03/01 03:06:57;;;;;;;8.70;3.70;;;;;;;0.77;90.26;96321.36;106510;1276;22503;-74
2023/03/01 03:09:26;;;;;;;5.30;3.00;;;;;;;0.82;90.22;96317.02;106720;1276;24345;-74
2023/03/01 03:11:56;;;;;;;57.70;28.50;;;;;;;0.82;89.74;96317.88;106583;1276;24381;-74
2023/03/01 03:14:25;;;;;;;20.90;10.90;;;;;;;0.81;89.65;96316.65;106625;1276;23736;-74
2023/03/01 03:16:54;;;;;;;6.00;3.70;;;;;;;0.84;90.06;96314.14;106560;1276;22595;-74
2023/03/01 03:19:22;;;;;;;16.10;7.70;;;;;;;0.91;90.41;96311.40;106570;1276;22625;-74
2023/03/01 03:21:50;;;;;;;10.60;5.80;;;;;;;0.99;90.62;96310.59;106537;1275;25312;-75
2023/03/01 03:24:18;;;;;;;56.70;22.70;;;;;;;1.02;90.17;96311.39;106578;1276;22594;-74
2023/03/01 03:26:47;;;;;;;22.20;10.40;;;;;;;1.00;89.78;96310.46;106577;1276;22629;-74
2023/03/01 03:29:15;;;;;;;8.00;4.60;;;;;;;1.06;90.21;96306.13;106620;1276;22524;-74
2023/03/01 03:31:43;;;;;;;5.90;3.70;;;;;;;1.22;91.10;96307.98;106594;1276;24241;-75
2023/03/01 03:34:17;;;;;;;4.70;3.00;;;;;;;1.33;90.88;96304.13;106599;1275;23874;-74
2023/03/01 03:36:46;;;;;;;5.10;3.80;;;;;;;1.40;90.57;96300.88;105837;1275;1038645;-74
2023/03/01 03:39:14;;;;;;;5.10;3.10;;;;;;;1.42;89.92;96299.52;106546;1276;24372;-74
2023/03/01 03:41:42;;;;;;;5.00;3.30;;;;;;;1.40;89.71;96295.65;106552;1276;24451;-75
2023/03/01 03:44:10;;;;;;;5.30;3.10;;;;;;;1.42;89.76;96298.66;106532;1276;22532;-74
2023/03/01 03:46:38;;;;;;;3.90;2.60;;;;;;;1.44;89.85;96302.55;106631;1276;22656;-74
2023/03/01 03:49:06;;;;;;;9.70;5.90;;;;;;;1.53;90.32;96302.09;106467;1275;23875;-74
2023/03/01 03:51:34;;;;;;;7.20;4.60;;;;;;;1.58;89.86;96305.00;106537;1276;24228;-74
2023/03/01 03:54:03;;;;;;;6.10;4.30;;;;;;;1.53;88.97;96304.16;106542;1276;24239;-74
2023/03/01 03:56:31;;;;;;;6.10;4.20;;;;;;;1.43;88.63;96305.12;106594;1276;22524;-74
2023/03/01 03:59:00;;;;;;;16.10;8.10;;;;;;;1.41;89.09;96309.39;106627;1276;23919;-74
2023/03/01 04:01:28;;;;;;;20.70;11.20;;;;;;;1.41;89.22;96308.35;106549;1276;25597;-76
2023/03/01 04:04:03;;;;;;;23.00;11.90;;;;;;;1.37;88.93;96307.52;106521;1276;22526;-76
2023/03/01 04:06:31;;;;;;;14.40;6.10;;;;;;;1.26;88.60;96309.15;106610;1276;23877;-74
2023/03/01 04:09:02;;;;;;;15.80;8.80;;;;;;;1.14;88.27;96311.55;106551;1276;25389;-74
2023/03/01 04:11:30;;;;;;;17.30;9.70;;;;;;;1.06;88.68;96315.47;106585;1276;22552;-74
2023/03/01 04:13:59;;;;;;;10.00;4.20;;;;;;;1.01;88.71;96319.48;106560;1276;25469;-74
2023/03/01 04:16:28;;;;;;;6.30;3.30;;;;;;;1.00;88.86;96313.91;106649;1276;24141;-74
2023/03/01 04:18:59;;;;;;;5.50;3.30;;;;;;;0.98;88.97;96316.64;106633;1276;24430;-74
2023/03/01 04:21:27;;;;;;;5.10;2.90;;;;;;;0.96;89.00;96319.69;106618;1276;22531;-74
2023/03/01 04:23:55;;;;;;;7.20;3.60;;;;;;;0.95;89.31;96318.27;106560;1276;22555;-74
2023/03/01 04:26:24;;;;;;;7.30;3.40;;;;;;;0.95;89.51;96319.84;106542;1276;25378;-74
2023/03/01 04:28:52;;;;;;;9.30;5.90;;;;;;;0.94;89.68;96313.21;106522;1276;24665;-77
2023/03/01 04:31:21;;;;;;;9.90;5.00;;;;;;;0.93;89.84;96309.39;106551;1276;24231;-74
2023/03/01 04:33:55;;;;;;;6.90;3.90;;;;;;;0.90;89.99;96311.38;106617;1263;22663;-74
2023/03/01 04:36:25;;;;;;;7.90;4.60;;;;;;;0.87;90.11;96314.91;106670;1276;24366;-75
2023/03/01 04:38:55;;;;;;;18.20;8.70;;;;;;;0.84;90.06;96316.05;106623;1276;22667;-75
2023/03/01 04:41:25;;;;;;;7.80;4.80;;;;;;;0.81;90.36;96322.35;106666;1275;23153;-75
2023/03/01 04:43:53;;;;;;;17.20;9.30;;;;;;;0.76;90.23;96322.36;106924;1276;25337;-75
2023/03/01 04:46:22;;;;;;;10.30;5.90;;;;;;;0.73;90.54;96325.03;106564;1276;22538;-75
2023/03/01 04:48:50;;;;;;;8.40;4.40;;;;;;;0.70;90.25;96325.65;106633;1253;22518;-75
2023/03/01 04:51:18;;;;;;;6.60;3.10;;;;;;;0.69;90.15;96328.73;106680;1276;22563;-75
2023/03/01 04:53:47;;;;;;;5.80;3.00;;;;;;;0.71;90.35;96333.48;106568;1276;22528;-75
2023/03/01 04:56:17;;;;;;;5.40;2.80;;;;;;;0.73;90.71;96334.23;106620;1276;22755;-76
2023/03/01 04:58:46;;;;;;;7.20;4.20;;;;;;;0.74;90.72;96336.34;106559;1276;24243;-75
2023/03/01 05:01:17;;;;;;;6.20;4.10;;;;;;;0.76;90.59;96341.96;106599;1276;22512;-74
2023/03/01 05:03:51;;;;;;;12.00;6.40;;;;;;;0.75;90.94;96343.83;106605;1276;22658;-75
2023/03/01 05:06:20;;;;;;;14.10;9.10;;;;;;;0.77;90.80;96344.23;106596;1276;25316;-74
2023/03/01 05:08:49;;;;;;;16.70;10.10;;;;;;;0.77;90.51;96341.27;106626;1276;24234;-73
2023/03/01 05:11:17;;;;;;;17.10;10.40;;;;;;;0.79;90.63;96340.30;106612;1276;22654;-73
2023/03/01 05:13:45;;;;;;;16.80;9.30;;;;;;;0.82;90.77;96344.23;106590;1276;22628;-73
2023/03/01 05:16:13;;;;;;;14.70;8.70;;;;;;;0.84;90.66;96345.67;106602;1276;22649;-74
2023/03/01 05:18:43;;;;;;;18.60;9.80;;;;;;;0.95;91.14;96350.64;106612;1276;22524;-73
2023/03/01 05:21:15;;;;;;;65.10;32.00;;;;;;;1.03;91.28;96347.98;106564;1276;22772;-72
2023/03/01 05:23:45;;;;;;;53.70;28.10;;;;;;;1.14;91.22;96347.95;106596;1276;22520;-73
2023/03/01 05:26:14;;;;;;;39.30;19.50;;;;;;;1.18;90.59;96353.25;106685;1276;26757;-73
2023/03/01 05:28:59;;;;;;;14.90;8.80;;;;;;;1.14;90.05;96351.41;106904;1276;22520;-73
2023/03/01 05:31:28;;;;;;;22.90;13.10;;;;;;;1.19;90.72;96355.36;106580;1275;24251;-73
2023/03/01 05:33:56;;;;;;;33.30;20.50;;;;;;;1.32;91.01;96359.05;106657;1276;22761;-73
2023/03/01 05:36:24;;;;;;;37.30;24.40;;;;;;;1.40;90.78;96360.48;106554;1275;24381;-73
2023/03/01 05:38:52;;;;;;;23.80;16.20;;;;;;;1.39;90.31;96360.11;106562;1276;22524;-73
2023/03/01 05:41:20;;;;;;;16.80;10.20;;;;;;;1.42;90.41;96360.36;106584;1276;22880;-74
2023/03/01 05:43:49;;;;;;;14.10;10.10;;;;;;;1.46;90.47;96364.11;106561;1276;22496;-73
2023/03/01 05:46:17;;;;;;;12.30;7.60;;;;;;;1.52;90.75;96367.07;106629;1276;22517;-73
2023/03/01 05:48:47;;;;;;;15.50;10.60;;;;;;;1.54;90.38;96367.98;106556;1276;22685;-73
2023/03/01 05:51:15;;;;;;;21.20;14.30;;;;;;;1.46;89.77;96368.64;106541;1276;25571;-74
2023/03/01 05:53:43;;;;;;;26.70;17.80;;;;;;;1.46;90.19;96372.30;106558;1276;25507;-76
2023/03/01 05:56:11;;;;;;;31.90;18.90;;;;;;;1.49;90.07;96373.93;106624;1276;22517;-77
2023/03/01 05:58:39;;;;;;;79.90;43.40;;;;;;;1.46;89.96;96378.17;106563;1276;22794;-73
2023/03/01 06:01:12;;;;;;;50.70;32.10;;;;;;;1.43;89.90;96378.80;106629;1276;24278;-77
2023/03/01 06:03:41;;;;;;;54.00;32.40;;;;;;;1.47;90.32;96381.85;106466;1276;25379;-76
2023/03/01 06:06:09;;;;;;;56.10;31.90;;;;;;;1.48;90.22;96383.77;106608;1275;23172;-72
2023/03/01 06:08:37;;;;;;;89.80;46.70;;;;;;;1.49;90.09;96378.61;106696;1276;25414;-74
2023/03/01 06:11:06;;;;;;;84.10;45.50;;;;;;;1.50;90.16;96377.96;106828;1276;23137;-72
2023/03/01 06:13:35;;;;;;;40.40;23.60;;;;;;;1.49;89.90;96380.17;106626;1276;22522;-77
2023/03/01 06:16:06;;;;;;;58.90;32.30;;;;;;;1.45;89.57;96378.84;106541;1275;24204;-69
2023/03/01 06:18:35;;;;;;;70.20;38.90;;;;;;;1.44;89.70;96378.11;106931;1275;22511;-74
2023/03/01 06:21:05;;;;;;;60.20;33.20;;;;;;;1.47;90.17;96379.06;106572;1276;24166;-74
2023/03/01 06:23:34;;;;;;;48.80;28.50;;;;;;;1.49;90.02;96380.35;106606;1276;24242;-75
2023/03/01 06:26:07;;;;;;;57.50;35.40;;;;;;;1.54;90.20;96382.55;106874;1276;23931;-74
2023/03/01 06:28:36;;;;;;;52.40;31.60;;;;;;;1.62;90.41;96383.65;106879;1275;24262;-80
2023/03/01 06:31:04;;;;;;;65.00;38.00;;;;;;;1.66;90.36;96381.35;106700;1276;24538;-71
2023/03/01 06:33:32;;;;;;;70.00;39.30;;;;;;;1.73;90.37;96384.50;106496;1275;25251;-75
2023/03/01 06:36:00;;;;;;;113.30;66.90;;;;;;;1.82;90.38;96390.81;106561;1276;25445;-75
2023/03/01 06:38:29;;;;;;;67.80;42.50;;;;;;;1.89;90.24;96390.16;106416;1276;25428;-74
2023/03/01 06:40:57;;;;;;;59.90;37.50;;;;;;;1.92;89.87;96388.16;106470;1276;22523;-79
2023/03/01 06:43:25;;;;;;;58.70;36.50;;;;;;;1.94;89.62;96385.77;106690;1276;22550;-74
2023/03/01 06:45:53;;;;;;;54.00;33.00;;;;;;;1.99;89.95;96383.82;106758;1276;22641;-70
2023/03/01 06:48:22;;;;;;;58.50;36.60;;;;;;;2.05;89.90;96384.52;106802;1275;25357;-75
2023/03/01 06:50:50;;;;;;;48.90;30.90;;;;;;;2.13;89.84;96381.95;106786;1275;25204;-76
2023/03/01 06:53:18;;;;;;;61.20;36.80;;;;;;;2.20;89.71;96381.44;106761;1276;23149;-75
2023/03/01 06:55:46;;;;;;;61.80;39.30;;;;;;;2.28;89.60;96381.82;106505;1276;25390;-74
2023/03/01 06:58:15;;;;;;;46.10;30.40;;;;;;;2.38;89.40;96387.46;106587;1276;24472;-75
2023/03/01 07:00:44;;;;;;;79.90;40.00;;;;;;;2.46;89.13;96381.77;106809;1276;22518;-76
2023/03/01 07:03:12;;;;;;;37.30;21.50;;;;;;;2.57;88.94;96380.81;106452;1275;22593;-73
2023/03/01 07:05:40;;;;;;;39.90;23.80;;;;;;;2.67;88.57;96378.27;106463;1276;24222;-73
2023/03/01 07:08:08;;;;;;;43.30;25.90;;;;;;;2.82;88.88;96377.09;106399;1276;22503;-77
2023/03/01 07:10:37;;;;;;;39.10;24.50;;;;;;;2.99;88.36;96376.95;106693;1276;24253;-75
2023/03/01 07:13:06;;;;;;;56.60;34.40;;;;;;;3.16;88.16;96377.35;107033;1275;22520;-70
2023/03/01 07:15:34;;;;;;;73.80;47.30;;;;;;;3.33;87.54;96374.27;106917;1275;24256;-75
2023/03/01 07:18:02;;;;;;;112.80;70.80;;;;;;;3.52;87.40;96370.46;106435;1275;24254;-75
2023/03/01 07:20:31;;;;;;;94.50;59.70;;;;;;;3.71;86.80;96371.21;106812;1275;24226;-75
2023/03/01 07:29:01;;;;;;;26.60;17.80;;;;;;;4.23;84.23;96365.79;104061;1304;544795;-73
2023/03/01 07:31:30;;;;;;;16.40;12.40;;;;;;;4.41;83.93;96359.30;105936;1289;25285;-72
2023/03/01 07:33:58;;;;;;;19.30;13.80;;;;;;;4.63;83.86;96354.11;105886;1289;22533;-73
2023/03/01 07:36:26;;;;;;;15.90;10.40;;;;;;;4.88;83.80;96348.41;105865;1289;22492;-71
2023/03/01 07:38:55;;;;;;;13.40;8.50;;;;;;;5.08;82.39;96343.65;105855;1289;22536;-76
2023/03/01 07:41:24;;;;;;;13.90;9.40;;;;;;;5.16;81.15;96342.04;105991;1273;25611;-76
2023/03/01 07:43:52;;;;;;;16.90;10.70;;;;;;;5.12;80.07;96343.55;105558;1282;22593;-78
2023/03/01 07:46:21;;;;;;;26.80;16.80;;;;;;;5.18;80.28;96335.25;106054;1282;22602;-70
2023/03/01 07:48:49;;;;;;;23.30;16.00;;;;;;;5.30;79.90;96334.73;106187;1282;22543;-73
2023/03/01 07:51:17;;;;;;;23.10;15.80;;;;;;;5.34;79.04;96331.30;106105;1283;24368;-75
2023/03/01 07:53:48;;;;;;;14.10;10.60;;;;;;;5.37;79.20;96332.55;106224;1283;22520;-75
2023/03/01 07:56:18;;;;;;;19.00;13.00;;;;;;;5.45;78.52;96332.30;106139;1282;22736;-77
2023/03/01 07:58:46;;;;;;;13.40;9.40;;;;;;;5.52;78.22;96327.87;106087;1282;22645;-77
2023/03/01 08:01:20;;;;;;;15.50;9.30;;;;;;;5.58;76.77;96327.42;106071;1282;22642;-72
2023/03/01 08:03:48;;;;;;;13.40;9.00;;;;;;;5.58;76.02;96324.63;105960;1282;22537;-73
2023/03/01 08:06:18;;;;;;;15.50;9.80;;;;;;;5.66;76.53;96322.27;106109;1282;22527;-81
2023/03/01 08:08:46;;;;;;;16.40;10.70;;;;;;;5.69;75.60;96325.10;106134;1282;22531;-72
2023/03/01 08:11:15;;;;;;;14.30;11.00;;;;;;;5.80;76.21;96324.88;106157;1282;24446;-77
2023/03/01 08:13:47;;;;;;;17.80;11.30;;;;;;;5.91;75.56;96319.08;106215;1283;22516;-74
2023/03/01 08:16:18;;;;;;;15.70;9.90;;;;;;;6.06;74.58;96314.38;106173;1282;24201;-78
2023/03/01 08:18:46;;;;;;;17.60;12.80;;;;;;;6.12;73.68;96308.50;106106;1282;22871;-74
2023/03/01 08:21:16;;;;;;;28.50;18.40;;;;;;;6.14;73.25;96304.84;106301;1283;22634;-77
2023/03/01 08:23:45;;;;;;;53.30;37.40;;;;;;;6.24;74.18;96300.23;106106;1282;23898;-83
2023/03/01 08:26:19;;;;;;;107.40;71.90;;;;;;;6.41;74.02;96300.22;106181;1282;25492;-74
2023/03/01 08:28:49;;;;;;;74.70;48.60;;;;;;;6.58;73.09;96292.48;106262;1282;23149;-76
2023/03/01 08:31:17;;;;;;;130.60;78.80;;;;;;;6.64;71.58;96288.88;106256;1282;23727;-77
2023/03/01 08:33:50;;;;;;;85.70;53.40;;;;;;;6.76;71.45;96291.77;106372;1282;25834;-75
2023/03/01 08:36:19;;;;;;;97.70;59.10;;;;;;;6.81;71.04;96288.30;106353;1283;22534;-79
2023/03/01 08:38:48;;;;;;;84.50;49.00;;;;;;;6.85;70.79;96287.63;106194;1283;25356;-76
2023/03/01 08:41:17;;;;;;;59.90;37.00;;;;;;;6.99;70.21;96288.60;106166;1283;22520;-79
2023/03/01 08:43:45;;;;;;;26.00;16.60;;;;;;;7.09;68.95;96280.61;106186;1283;24448;-74
2023/03/01 08:46:14;;;;;;;30.60;22.70;;;;;;;7.26;69.85;96280.35;106090;1283;22941;-75
2023/03/01 08:48:43;;;;;;;44.50;35.30;;;;;;;7.49;69.37;96274.33;106297;1283;22634;-74
2023/03/01 08:51:14;;;;;;;15.40;12.20;;;;;;;7.60;67.62;96267.73;106115;1283;23143;-74
2023/03/01 08:53:43;;;;;;;21.80;17.20;;;;;;;7.77;67.46;96269.55;106145;1268;25455;-74
2023/03/01 08:56:12;;;;;;;13.20;10.70;;;;;;;7.96;66.66;96268.90;106202;1282;22751;-70
2023/03/01 08:58:44;;;;;;;12.70;9.10;;;;;;;8.10;66.82;96268.05;106071;1283;24251;-73
2023/03/01 09:01:16;;;;;;;18.30;13.60;;;;;;;8.18;66.36;96265.08;106200;1283;22624;-79
2023/03/01 09:03:44;;;;;;;44.60;36.00;;;;;;;8.36;65.45;96260.70;106230;1283;22532;-77
2023/03/01 09:06:13;;;;;;;39.60;35.20;;;;;;;8.34;64.88;96260.89;106136;1283;24044;-83
2023/03/01 09:08:45;;;;;;;29.10;24.10;;;;;;;8.34;64.12;96262.46;106263;1283;22601;-79
2023/03/01 09:11:16;;;;;;;40.80;32.70;;;;;;;8.38;64.21;96265.64;106174;1283;24251;-73
2023/03/01 09:13:46;;;;;;;24.10;20.70;;;;;;;8.48;64.21;96263.90;106113;1283;22533;-71
2023/03/01 09:16:19;;;;;;;23.90;19.70;;;;;;;8.61;63.13;96258.84;106348;1283;22525;-72
2023/03/01 09:18:52;;;;;;;19.20;16.70;;;;;;;8.71;62.28;96260.23;106098;1283;24447;-70
2023/03/01 09:21:22;;;;;;;11.60;10.30;;;;;;;8.86;63.12;96256.70;106207;1275;25268;-71
2023/03/01 09:24:13;;;;;;;7.00;5.80;;;;;;;9.00;60.13;96249.49;106110;1283;22553;-74
2023/03/01 09:26:42;;;;;;;8.40;6.30;;;;;;;8.96;59.45;96248.80;106096;1283;23024;-71
2023/03/01 09:29:10;;;;;;;10.30;8.90;;;;;;;9.09;60.22;96248.77;106368;1279;24229;-70
2023/03/01 09:31:38;;;;;;;12.40;9.00;;;;;;;9.25;58.88;96247.33;106268;1273;22572;-75
2023/03/01 09:34:08;;;;;;;7.60;6.70;;;;;;;9.35;58.62;96249.04;106425;1276;26544;-75
2023/03/01 09:36:36;;;;;;;10.60;6.50;;;;;;;9.48;58.86;96244.97;106175;1269;24357;-73
2023/03/01 09:39:07;;;;;;;6.60;4.50;;;;;;;9.61;57.71;96242.27;106287;1273;22544;-74
2023/03/01 09:41:45;;;;;;;5.20;3.90;;;;;;;9.63;56.71;96233.83;106276;1273;25313;-73
2023/03/01 09:44:40;;;;;;;3.80;3.30;;;;;;;9.70;55.94;96235.55;106311;1280;25218;-73
2023/03/01 09:47:30;;;;;;;5.10;3.70;;;;;;;9.74;54.21;96233.44;106246;1275;22801;-74
2023/03/01 09:50:16;;;;;;;3.20;2.80;;;;;;;9.78;54.91;96228.13;106255;1273;24300;-75
2023/03/01 09:52:53;;;;;;;28.50;21.40;;;;;;;10.04;54.50;96223.23;106426;1276;22520;-74
2023/03/01 09:55:33;;;;;;;353.50;246.40;;;;;;;10.09;52.67;96219.70;106272;1273;22557;-72
2023/03/01 09:58:39;;;;;;;113.70;87.80;;;;;;;10.11;53.31;96219.85;106230;1276;22639;-74
2023/03/01 10:01:41;;;;;;;76.80;58.40;;;;;;;10.08;51.98;96222.86;106315;1276;22795;-73
2023/03/01 10:04:23;;;;;;;52.10;42.20;;;;;;;10.06;52.18;96219.35;106405;1274;22521;-73
2023/03/01 10:07:06;;;;;;;9.10;8.30;;;;;;;10.09;52.33;96222.84;106259;1276;22760;-73
2023/03/01 10:09:39;;;;;;;21.10;19.10;;;;;;;10.27;52.10;96218.88;106187;1273;25255;-75
2023/03/01 10:12:11;;;;;;;10.30;9.30;;;;;;;10.40;51.71;96222.12;106244;1272;22527;-74
2023/03/01 10:15:07;;;;;;;5.00;4.30;;;;;;;10.47;51.40;96221.20;106300;1273;22533;-73
2023/03/01 10:17:46;;;;;;;4.70;3.50;;;;;;;10.67;51.12;96215.92;106250;1276;25511;-73
2023/03/01 10:20:19;;;;;;;3.40;2.60;;;;;;;10.84;51.01;96210.32;106402;1272;24243;-76
2023/03/01 10:22:52;;;;;;;4.30;3.80;;;;;;;11.01;50.71;96206.96;106444;1276;22532;-74
2023/03/01 10:25:47;;;;;;;3.60;2.80;;;;;;;11.18;49.26;96202.75;106258;1279;23890;-75
2023/03/01 10:28:52;;;;;;;4.00;3.00;;;;;;;11.26;49.68;96199.65;106287;1276;24354;-75
2023/03/01 10:31:28;;;;;;;4.80;3.20;;;;;;;11.46;49.94;96191.14;106671;1279;22659;-75
2023/03/01 10:33:58;;;;;;;3.90;2.50;;;;;;;11.66;49.14;96185.77;106622;1279;22569;-74
2023/03/01 10:36:26;;;;;;;2.80;2.50;;;;;;;11.72;48.56;96189.56;106420;1279;25671;-75
2023/03/01 10:38:57;;;;;;;2.60;2.30;;;;;;;11.72;48.60;96187.80;106267;1279;22531;-74
2023/03/01 10:41:27;;;;;;;4.80;3.70;;;;;;;11.83;49.37;96186.61;106327;1279;22523;-75
2023/03/01 10:43:59;;;;;;;5.80;3.70;;;;;;;11.88;48.39;96187.08;106237;1269;24218;-74
2023/03/01 10:46:31;;;;;;;3.60;3.10;;;;;;;11.89;48.61;96185.31;106623;1275;25449;-75
2023/03/01 10:49:19;;;;;;;3.60;2.20;;;;;;;12.05;47.75;96180.49;106562;1275;24236;-74
2023/03/01 10:51:50;;;;;;;5.30;2.80;;;;;;;12.44;47.34;96181.30;107688;1275;23229;-75
2023/03/01 10:54:27;;;;;;;6.30;3.20;;;;;;;12.66;45.52;96178.45;106796;1275;25456;-75
2023/03/01 10:57:00;;;;;;;5.30;3.80;;;;;;;12.87;45.45;96173.15;106708;1275;22577;-75
2023/03/01 10:59:34;;;;;;;6.50;5.60;;;;;;;13.05;45.21;96175.45;106706;1268;22531;-75
2023/03/01 11:02:25;;;;;;;6.10;4.40;;;;;;;13.36;44.11;96169.20;106545;1276;22672;-72
2023/03/01 11:04:59;;;;;;;9.40;6.60;;;;;;;13.84;44.70;96166.60;106724;1276;22520;-73
2023/03/01 11:07:27;;;;;;;7.10;6.00;;;;;;;14.27;43.64;96165.09;106604;1276;22637;-73
2023/03/01 11:09:55;;;;;;;6.90;5.40;;;;;;;14.70;42.92;96163.72;106641;1276;22612;-73
2023/03/01 11:12:24;;;;;;;5.40;4.10;;;;;;;15.01;41.83;96159.36;106643;1276;22547;-73
2023/03/01 11:14:55;;;;;;;6.10;4.60;;;;;;;15.22;41.04;96155.05;106700;1276;23230;-74
2023/03/01 11:17:28;;;;;;;10.00;6.70;;;;;;;15.40;40.63;96150.30;106619;1276;24177;-75
2023/03/01 11:20:01;;;;;;;15.50;8.90;;;;;;;15.69;40.48;96144.13;106646;1276;23951;-74
2023/03/01 11:22:32;;;;;;;5.10;3.30;;;;;;;16.06;39.36;96144.10;106662;1263;22647;-74
2023/03/01 11:25:02;;;;;;;4.40;3.60;;;;;;;16.28;38.55;96144.30;106562;1276;22588;-75
2023/03/01 11:27:45;;;;;;;5.40;4.00;;;;;;;16.47;38.76;96140.66;106662;1276;24507;-74
2023/03/01 11:30:31;;;;;;;7.70;4.60;;;;;;;16.68;38.17;96135.88;106674;1276;22535;-75
2023/03/01 11:33:08;;;;;;;6.70;4.00;;;;;;;16.85;38.67;96136.20;106607;1276;22550;-74
2023/03/01 11:35:44;;;;;;;8.60;5.00;;;;;;;17.03;37.10;96130.05;106612;1276;24244;-75
2023/03/01 11:38:25;;;;;;;9.00;6.00;;;;;;;17.22;36.59;96130.65;106614;1276;25470;-74
2023/03/01 11:41:05;;;;;;;7.80;5.10;;;;;;;17.21;35.89;96121.95;106576;1276;26643;-75
2023/03/01 11:43:47;;;;;;;9.00;5.90;;;;;;;16.98;36.11;96121.86;106816;1276;22760;-75
2023/03/01 11:46:38;;;;;;;13.30;6.00;;;;;;;17.08;35.95;96119.59;106703;1276;24211;-75
2023/03/01 11:49:21;;;;;;;10.40;5.80;;;;;;;17.27;35.98;96121.17;106619;1276;24232;-75
2023/03/01 11:52:02;;;;;;;11.00;6.70;;;;;;;17.21;35.95;96123.02;106548;1276;22517;-75